createdAt,value
2024-01-24T00:00:07.145Z,544.00
2024-01-24T00:01:07.225Z,543.00
2024-01-24T00:02:07.135Z,542.00
2024-01-24T00:03:07.156Z,545.00
2024-01-24T00:04:07.232Z,545.00
2024-01-24T00:05:07.157Z,545.00
2024-01-24T00:06:07.098Z,542.00
2024-01-24T00:07:07.098Z,542.00
2024-01-24T00:08:07.077Z,543.00
2024-01-24T00:09:07.115Z,544.00
2024-01-24T00:10:07.158Z,541.00
2024-01-24T00:11:07.071Z,539.00
2024-01-24T00:12:07.111Z,541.00
2024-01-24T00:13:07.101Z,543.00
2024-01-24T00:14:07.100Z,542.00
2024-01-24T00:15:07.165Z,542.00
2024-01-24T00:16:07.194Z,543.00
2024-01-24T00:17:07.234Z,543.00
2024-01-24T00:18:07.384Z,545.00
2024-01-24T00:19:07.369Z,545.00
2024-01-24T00:20:07.295Z,546.00
2024-01-24T00:21:07.297Z,548.00
2024-01-24T00:22:07.365Z,549.00
2024-01-24T00:23:07.260Z,548.00
2024-01-24T00:24:07.265Z,549.00
2024-01-24T00:25:07.242Z,548.00
2024-01-24T00:26:07.226Z,547.00
2024-01-24T00:27:07.234Z,545.00
2024-01-24T00:28:07.218Z,547.00
2024-01-24T00:29:07.226Z,547.00
2024-01-24T00:30:07.214Z,545.00
2024-01-24T00:31:07.216Z,545.00
2024-01-24T00:32:07.206Z,544.00
2024-01-24T00:33:07.210Z,542.00
2024-01-24T00:34:07.441Z,543.00
2024-01-24T00:35:07.181Z,543.00
2024-01-24T00:36:07.192Z,545.00
2024-01-24T00:37:07.167Z,545.00
2024-01-24T00:38:07.183Z,546.00
2024-01-24T00:39:07.166Z,546.00
2024-01-24T00:40:07.180Z,544.00
2024-01-24T00:41:07.160Z,544.00
2024-01-24T00:42:07.161Z,545.00
2024-01-24T00:43:07.139Z,546.00
2024-01-24T00:44:07.127Z,546.00
2024-01-24T00:45:07.172Z,545.00
2024-01-24T00:46:07.118Z,543.00
2024-01-24T00:47:07.103Z,543.00
2024-01-24T00:48:07.203Z,542.00
2024-01-24T00:49:07.170Z,542.00
2024-01-24T00:50:07.112Z,544.00
2024-01-24T00:51:07.098Z,544.00
2024-01-24T00:52:07.079Z,545.00
2024-01-24T00:53:07.075Z,548.00
2024-01-24T00:54:07.103Z,551.00
2024-01-24T00:55:07.077Z,548.00
2024-01-24T00:56:07.083Z,544.00
2024-01-24T00:57:07.092Z,545.00
2024-01-24T00:58:07.083Z,541.00
2024-01-24T00:59:07.061Z,543.00
2024-01-24T01:00:07.041Z,545.00
2024-01-24T01:01:07.154Z,544.00
2024-01-24T01:02:07.050Z,546.00
2024-01-24T01:03:07.075Z,548.00
2024-01-24T01:04:07.117Z,547.00
2024-01-24T01:05:07.050Z,547.00
2024-01-24T01:06:07.060Z,545.00
2024-01-24T01:07:07.048Z,545.00
2024-01-24T01:08:07.051Z,543.00
2024-01-24T01:09:07.083Z,542.00
2024-01-24T01:10:07.153Z,544.00
2024-01-24T01:11:07.074Z,541.00
2024-01-24T01:12:07.086Z,539.00
2024-01-24T01:13:07.086Z,540.00
2024-01-24T01:14:07.119Z,539.00
2024-01-24T01:15:07.123Z,537.00
2024-01-24T01:16:07.104Z,536.00
2024-01-24T01:17:07.105Z,535.00
2024-01-24T01:18:07.197Z,537.00
2024-01-24T01:19:07.212Z,537.00
2024-01-24T01:20:07.094Z,536.00
2024-01-24T01:21:07.091Z,538.00
2024-01-24T01:22:07.139Z,538.00
2024-01-24T01:23:07.077Z,538.00
2024-01-24T01:24:07.125Z,537.00
2024-01-24T01:25:07.101Z,537.00
2024-01-24T01:26:07.093Z,538.00
2024-01-24T01:27:07.104Z,540.00
2024-01-24T01:28:07.089Z,539.00
2024-01-24T01:29:07.112Z,540.00
2024-01-24T01:30:07.087Z,540.00
2024-01-24T01:31:07.095Z,538.00
2024-01-24T01:32:07.133Z,540.00
2024-01-24T01:33:07.226Z,539.00
2024-01-24T01:34:07.143Z,538.00
2024-01-24T01:35:07.078Z,537.00
2024-01-24T01:36:17.270Z,537.00
2024-01-24T01:37:08.143Z,538.00
2024-01-24T01:38:07.058Z,540.00
2024-01-24T01:39:07.085Z,542.00
2024-01-24T01:40:07.038Z,542.00
2024-01-24T01:41:07.009Z,543.00
2024-01-24T01:42:07.027Z,540.00
2024-01-24T01:43:07.845Z,540.00
2024-01-24T01:44:06.993Z,541.00
2024-01-24T01:45:07.006Z,540.00
2024-01-24T01:46:06.992Z,537.00
2024-01-24T01:47:06.982Z,537.00
2024-01-24T01:48:07.043Z,540.00
2024-01-24T01:49:07.096Z,544.00
2024-01-24T01:50:07.838Z,545.00
2024-01-24T01:51:06.946Z,544.00
2024-01-24T01:52:06.935Z,544.00
2024-01-24T01:53:06.915Z,544.00
2024-01-24T01:54:06.902Z,544.00
2024-01-24T01:55:06.917Z,540.00
2024-01-24T01:56:06.896Z,539.00
2024-01-24T01:57:06.902Z,541.00
2024-01-24T01:58:06.873Z,543.00
2024-01-24T01:59:06.863Z,541.00
2024-01-24T02:00:06.903Z,541.00
2024-01-24T02:01:06.974Z,540.00
2024-01-24T02:02:06.855Z,540.00
2024-01-24T02:03:06.931Z,540.00
2024-01-24T02:04:06.892Z,540.00
2024-01-24T02:05:06.797Z,540.00
2024-01-24T02:06:06.818Z,540.00
2024-01-24T02:07:06.889Z,540.00
2024-01-24T02:08:06.773Z,540.00
2024-01-24T02:09:06.829Z,540.00
2024-01-24T02:10:06.761Z,540.00
2024-01-24T02:11:06.747Z,540.00
2024-01-24T02:12:06.778Z,540.00
2024-01-24T02:13:06.789Z,540.00
2024-01-24T02:14:06.799Z,540.00
2024-01-24T02:15:06.844Z,540.00
2024-01-24T02:16:06.887Z,540.00
2024-01-24T02:17:06.911Z,540.00
2024-01-24T02:18:07.033Z,540.00
2024-01-24T02:19:07.102Z,540.00
2024-01-24T02:20:07.130Z,540.00
2024-01-24T02:21:07.020Z,540.00
2024-01-24T02:22:07.074Z,540.00
2024-01-24T02:23:07.083Z,540.00
2024-01-24T02:24:07.110Z,540.00
2024-01-24T02:25:07.133Z,540.00
2024-01-24T02:26:07.166Z,540.00
2024-01-24T02:27:07.229Z,540.00
2024-01-24T02:28:07.329Z,540.00
2024-01-24T02:29:07.273Z,540.00
2024-01-24T02:30:07.281Z,540.00
2024-01-24T02:31:07.302Z,540.00
2024-01-24T02:32:07.393Z,540.00
2024-01-24T02:33:07.437Z,540.00
2024-01-24T02:34:07.457Z,540.00
2024-01-24T02:35:07.410Z,540.00
2024-01-24T02:36:07.435Z,540.00
2024-01-24T02:37:07.490Z,540.00
2024-01-24T02:38:07.493Z,540.00
2024-01-24T02:39:07.543Z,540.00
2024-01-24T02:40:07.604Z,540.00
2024-01-24T02:41:07.603Z,540.00
2024-01-24T02:42:07.641Z,540.00
2024-01-24T02:43:07.668Z,540.00
2024-01-24T02:44:07.691Z,540.00
2024-01-24T02:45:07.791Z,540.00
2024-01-24T02:46:07.677Z,540.00
2024-01-24T02:47:07.669Z,540.00
2024-01-24T02:48:07.692Z,540.00
2024-01-24T02:49:07.756Z,540.00
2024-01-24T02:50:07.619Z,540.00
2024-01-24T02:51:07.627Z,540.00
2024-01-24T02:52:07.602Z,540.00
2024-01-24T02:53:07.589Z,540.00
2024-01-24T02:54:07.555Z,540.00
2024-01-24T02:55:07.559Z,540.00
2024-01-24T02:56:07.535Z,540.00
2024-01-24T02:57:07.544Z,540.00
2024-01-24T02:58:07.530Z,540.00
2024-01-24T02:59:07.532Z,540.00
2024-01-24T03:00:07.520Z,540.00
2024-01-24T03:01:07.685Z,540.00
2024-01-24T03:02:07.502Z,540.00
2024-01-24T03:03:07.536Z,540.00
2024-01-24T03:04:07.562Z,540.00
2024-01-24T03:05:07.476Z,540.00
2024-01-24T03:06:07.479Z,540.00
2024-01-24T03:07:07.526Z,540.00
2024-01-24T03:08:07.476Z,540.00
2024-01-24T03:09:07.430Z,540.00
2024-01-24T03:10:07.397Z,540.00
2024-01-24T03:11:07.392Z,540.00
2024-01-24T03:12:07.397Z,540.00
2024-01-24T03:13:07.463Z,540.00
2024-01-24T03:14:07.359Z,540.00
2024-01-24T03:15:07.395Z,540.00
2024-01-24T03:16:07.330Z,540.00
2024-01-24T03:17:07.324Z,540.00
2024-01-24T03:18:07.389Z,540.00
2024-01-24T03:19:07.430Z,540.00
2024-01-24T03:20:07.297Z,540.00
2024-01-24T03:21:07.290Z,540.00
2024-01-24T03:22:07.279Z,540.00
2024-01-24T03:23:07.257Z,540.00
2024-01-24T03:24:07.866Z,540.00
2024-01-24T03:25:07.243Z,540.00
2024-01-24T03:26:07.242Z,540.00
2024-01-24T03:27:07.204Z,540.00
2024-01-24T03:28:07.197Z,540.00
2024-01-24T03:29:07.189Z,540.00
2024-01-24T03:30:07.199Z,540.00
2024-01-24T03:31:07.173Z,540.00
2024-01-24T03:32:07.156Z,540.00
2024-01-24T03:33:07.242Z,540.00
2024-01-24T03:34:07.339Z,540.00
2024-01-24T03:35:07.286Z,540.00
2024-01-24T03:36:07.111Z,540.00
2024-01-24T03:37:07.103Z,540.00
2024-01-24T03:38:07.085Z,540.00
2024-01-24T03:39:07.090Z,540.00
2024-01-24T03:40:07.050Z,540.00
2024-01-24T03:41:07.054Z,540.00
2024-01-24T03:42:07.064Z,540.00
2024-01-24T03:43:07.025Z,540.00
2024-01-24T03:44:07.154Z,540.00
2024-01-24T03:45:06.993Z,540.00
2024-01-24T03:46:06.999Z,540.00
2024-01-24T03:47:06.974Z,540.00
2024-01-24T03:48:07.047Z,540.00
2024-01-24T03:49:07.072Z,540.00
2024-01-24T03:50:06.937Z,540.00
2024-01-24T03:51:06.943Z,540.00
2024-01-24T03:52:06.964Z,540.00
2024-01-24T03:53:06.992Z,540.00
2024-01-24T03:54:07.054Z,540.00
2024-01-24T03:55:07.043Z,540.00
2024-01-24T03:56:07.073Z,540.00
2024-01-24T03:57:07.083Z,540.00
2024-01-24T03:58:07.102Z,540.00
2024-01-24T03:59:07.155Z,540.00
2024-01-24T04:00:07.234Z,540.00
2024-01-24T04:01:07.294Z,540.00
2024-01-24T04:02:09.241Z,540.00
2024-01-24T04:03:07.256Z,540.00
2024-01-24T04:04:07.364Z,540.00
2024-01-24T04:05:07.303Z,540.00
2024-01-24T04:06:07.363Z,540.00
2024-01-24T04:07:07.421Z,540.00
2024-01-24T04:08:07.374Z,540.00
2024-01-24T04:09:07.397Z,540.00
2024-01-24T04:10:07.438Z,540.00
2024-01-24T04:11:07.459Z,540.00
2024-01-24T04:12:07.478Z,540.00
2024-01-24T04:13:07.504Z,540.00
2024-01-24T04:14:07.725Z,540.00
2024-01-24T04:15:07.574Z,540.00
2024-01-24T04:16:07.653Z,540.00
2024-01-24T04:17:07.616Z,540.00
2024-01-24T04:18:07.746Z,540.00
2024-01-24T04:19:07.787Z,540.00
2024-01-24T04:20:07.720Z,540.00
2024-01-24T04:21:07.739Z,540.00
2024-01-24T04:22:07.776Z,540.00
2024-01-24T04:23:07.803Z,540.00
2024-01-24T04:24:07.851Z,540.00
2024-01-24T04:25:07.859Z,540.00
2024-01-24T04:26:07.838Z,540.00
2024-01-24T04:27:07.869Z,540.00
2024-01-24T04:28:07.826Z,540.00
2024-01-24T04:29:10.826Z,540.00
2024-01-24T04:30:08.790Z,540.00
2024-01-24T04:31:16.028Z,531.00
2024-01-24T04:32:16.032Z,526.00
2024-01-24T04:33:16.168Z,532.00
2024-01-24T04:34:16.087Z,532.00
2024-01-24T04:35:16.029Z,528.00
2024-01-24T04:36:16.062Z,532.00
2024-01-24T04:37:16.063Z,530.00
2024-01-24T04:38:16.053Z,528.00
2024-01-24T04:39:16.078Z,528.00
2024-01-24T04:40:16.060Z,527.00
2024-01-24T04:41:16.050Z,526.00
2024-01-24T04:42:17.164Z,526.00
2024-01-24T04:43:16.047Z,526.00
2024-01-24T04:44:16.329Z,528.00
2024-01-24T04:45:16.073Z,526.00
2024-01-24T04:46:16.043Z,524.00
2024-01-24T04:47:16.052Z,523.00
2024-01-24T04:48:16.122Z,525.00
2024-01-24T04:49:26.377Z,527.00
2024-01-24T04:50:17.169Z,526.00
2024-01-24T04:51:16.091Z,524.00
2024-01-24T04:52:16.100Z,523.00
2024-01-24T04:53:16.105Z,523.00
2024-01-24T04:54:16.135Z,522.00
2024-01-24T04:55:16.097Z,522.00
2024-01-24T04:56:16.115Z,521.00
2024-01-24T04:57:16.119Z,522.00
2024-01-24T04:58:16.087Z,522.00
2024-01-24T04:59:16.095Z,524.00
2024-01-24T05:00:16.154Z,523.00
2024-01-24T05:01:16.224Z,527.00
2024-01-24T05:02:16.221Z,526.00
2024-01-24T05:03:16.299Z,527.00
2024-01-24T05:04:16.387Z,528.00
2024-01-24T05:05:16.397Z,529.00
2024-01-24T05:06:16.527Z,531.00
2024-01-24T05:07:16.685Z,531.00
2024-01-24T05:08:16.530Z,530.00
2024-01-24T05:09:16.615Z,529.00
2024-01-24T05:10:16.635Z,528.00
2024-01-24T05:11:16.694Z,530.00
2024-01-24T05:12:16.812Z,530.00
2024-01-24T05:13:16.823Z,533.00
2024-01-24T05:14:16.890Z,533.00
2024-01-24T05:15:16.983Z,534.00
2024-01-24T05:16:17.033Z,534.00
2024-01-24T05:17:17.146Z,536.00
2024-01-24T05:18:17.308Z,536.00
2024-01-24T05:19:17.452Z,535.00
2024-01-24T05:20:17.337Z,535.00
2024-01-24T05:21:17.396Z,535.00
2024-01-24T05:22:17.467Z,532.00
2024-01-24T05:23:17.551Z,534.00
2024-01-24T05:24:17.619Z,529.00
2024-01-24T05:25:17.680Z,525.00
2024-01-24T05:26:17.723Z,524.00
2024-01-24T05:27:17.872Z,523.00
2024-01-24T05:28:17.868Z,523.00
2024-01-24T05:29:17.925Z,522.00
2024-01-24T05:30:29.512Z,523.00
2024-01-24T05:31:19.019Z,524.00
2024-01-24T05:32:18.041Z,521.00
2024-01-24T05:33:18.060Z,521.00
2024-01-24T05:34:18.078Z,522.00
2024-01-24T05:35:18.035Z,524.00
2024-01-24T05:36:18.007Z,522.00
2024-01-24T05:37:17.992Z,524.00
2024-01-24T05:38:18.035Z,526.00
2024-01-24T05:39:18.043Z,526.00
2024-01-24T05:40:18.035Z,525.00
2024-01-24T05:41:18.041Z,529.00
2024-01-24T05:42:18.110Z,529.00
2024-01-24T05:43:18.106Z,528.00
2024-01-24T05:44:18.161Z,525.00
2024-01-24T05:45:18.222Z,520.00
2024-01-24T05:46:18.265Z,520.00
2024-01-24T05:47:18.364Z,520.00
2024-01-24T05:48:18.574Z,522.00
2024-01-24T05:49:18.560Z,522.00
2024-01-24T05:50:18.536Z,523.00
2024-01-24T05:51:18.580Z,523.00
2024-01-24T05:52:18.593Z,523.00
2024-01-24T05:53:18.653Z,521.00
2024-01-24T05:54:18.741Z,520.00
2024-01-24T05:55:19.674Z,521.00
2024-01-24T05:56:18.793Z,519.00
2024-01-24T05:57:18.903Z,516.00
2024-01-24T05:58:18.905Z,517.00
2024-01-24T05:59:18.934Z,520.00
2024-01-24T06:00:19.136Z,520.00
2024-01-24T06:01:19.311Z,518.00
2024-01-24T06:02:19.142Z,519.00
2024-01-24T06:03:19.692Z,521.00
2024-01-24T06:04:19.419Z,521.00
2024-01-24T06:05:19.494Z,521.00
2024-01-24T06:06:19.545Z,522.00
2024-01-24T06:07:19.585Z,522.00
2024-01-24T06:08:19.585Z,522.00
2024-01-24T06:09:19.654Z,524.00
2024-01-24T06:10:19.729Z,523.00
2024-01-24T06:11:19.792Z,523.00
2024-01-24T06:12:19.909Z,522.00
2024-01-24T06:13:19.922Z,517.00
2024-01-24T06:14:20.004Z,516.00
2024-01-24T06:15:20.146Z,516.00
2024-01-24T06:16:20.157Z,520.00
2024-01-24T06:17:20.252Z,520.00
2024-01-24T06:18:20.426Z,519.00
2024-01-24T06:19:20.433Z,522.00
2024-01-24T06:20:20.420Z,528.00
2024-01-24T06:21:20.522Z,527.00
2024-01-24T06:22:20.631Z,528.00
2024-01-24T06:23:20.621Z,525.00
2024-01-24T06:24:21.945Z,520.00
2024-01-24T06:25:20.711Z,520.00
2024-01-24T06:26:21.675Z,516.00
2024-01-24T06:27:21.215Z,516.00
2024-01-24T06:28:20.782Z,520.00
2024-01-24T06:30:14.749Z,574.00
2024-01-24T06:30:23.895Z,565.00
2024-01-24T06:31:20.913Z,559.00
2024-01-24T06:32:21.216Z,579.00
2024-01-24T06:33:20.836Z,587.00
2024-01-24T06:34:20.987Z,604.00
2024-01-24T06:35:20.942Z,615.00
2024-01-24T06:36:20.776Z,622.00
2024-01-24T06:37:20.900Z,657.00
2024-01-24T06:38:20.874Z,662.00
2024-01-24T06:39:20.810Z,748.00
2024-01-24T06:40:21.009Z,752.00
2024-01-24T06:41:20.784Z,732.00
2024-01-24T06:42:20.853Z,717.00
2024-01-24T06:43:21.168Z,704.00
2024-01-24T06:44:20.821Z,708.00
2024-01-24T06:45:20.990Z,713.00
2024-01-24T06:46:20.793Z,712.00
2024-01-24T06:47:20.813Z,711.00
2024-01-24T06:48:20.860Z,711.00
2024-01-24T06:49:20.868Z,710.00
2024-01-24T06:50:20.871Z,709.00
2024-01-24T06:51:20.897Z,710.00
2024-01-24T06:52:20.885Z,712.00
2024-01-24T06:53:20.810Z,714.00
2024-01-24T06:54:20.865Z,719.00
2024-01-24T06:55:20.934Z,719.00
2024-01-24T06:56:20.808Z,720.00
2024-01-24T06:57:20.945Z,720.00
2024-01-24T06:58:20.904Z,720.00
2024-01-24T06:59:20.940Z,718.00
2024-01-24T07:00:21.007Z,719.00
2024-01-24T07:01:21.088Z,721.00
2024-01-24T07:02:21.142Z,723.00
2024-01-24T07:03:23.474Z,722.00
2024-01-24T07:04:21.551Z,725.00
2024-01-24T07:05:21.457Z,732.00
2024-01-24T07:06:21.578Z,737.00
2024-01-24T07:07:21.622Z,740.00
2024-01-24T07:08:21.589Z,739.00
2024-01-24T07:09:21.712Z,742.00
2024-01-24T07:10:21.694Z,738.00
2024-01-24T07:11:21.748Z,732.00
2024-01-24T07:12:21.959Z,736.00
2024-01-24T07:13:21.837Z,737.00
2024-01-24T07:14:21.872Z,735.00
2024-01-24T07:15:21.968Z,740.00
2024-01-24T07:16:22.009Z,742.00
2024-01-24T07:17:22.146Z,740.00
2024-01-24T07:18:22.189Z,740.00
2024-01-24T07:19:22.245Z,742.00
2024-01-24T07:20:22.153Z,746.00
2024-01-24T07:21:22.260Z,750.00
2024-01-24T07:22:22.237Z,747.00
2024-01-24T07:23:22.290Z,759.00
2024-01-24T07:24:22.373Z,770.00
2024-01-24T07:25:22.449Z,774.00
2024-01-24T07:26:22.432Z,773.00
2024-01-24T07:27:22.530Z,775.00
2024-01-24T07:28:22.499Z,772.00
2024-01-24T07:29:22.537Z,766.00
2024-01-24T07:30:22.607Z,761.00
2024-01-24T07:31:23.278Z,761.00
2024-01-24T07:32:22.724Z,764.00
2024-01-24T07:33:25.340Z,809.00
2024-01-24T07:34:22.890Z,802.00
2024-01-24T07:35:22.705Z,791.00
2024-01-24T07:36:22.700Z,789.00
2024-01-24T07:37:22.727Z,787.00
2024-01-24T07:38:22.692Z,784.00
2024-01-24T07:39:22.727Z,780.00
2024-01-24T07:40:22.684Z,778.00
2024-01-24T07:41:22.699Z,776.00
2024-01-24T07:42:22.741Z,780.00
2024-01-24T07:43:22.710Z,788.00
2024-01-24T07:44:22.699Z,796.00
2024-01-24T07:45:22.704Z,805.00
2024-01-24T07:46:22.693Z,812.00
2024-01-24T07:47:22.691Z,815.00
2024-01-24T07:48:22.765Z,818.00
2024-01-24T07:49:22.829Z,822.00
2024-01-24T07:50:22.679Z,820.00
2024-01-24T07:51:22.738Z,819.00
2024-01-24T07:52:32.170Z,818.00
2024-01-24T07:53:23.687Z,815.00
2024-01-24T07:54:22.746Z,817.00
2024-01-24T07:55:28.572Z,822.00
2024-01-24T07:56:26.223Z,829.00
2024-01-24T07:57:22.733Z,833.00
2024-01-24T07:58:22.827Z,835.00
2024-01-24T07:59:22.640Z,835.00
2024-01-24T08:00:22.693Z,839.00
2024-01-24T08:01:23.114Z,841.00
2024-01-24T08:02:22.648Z,844.00
2024-01-24T08:03:22.677Z,849.00
2024-01-24T08:04:22.780Z,857.00
2024-01-24T08:05:22.615Z,862.00
2024-01-24T08:06:23.077Z,867.00
2024-01-24T08:07:22.623Z,864.00
2024-01-24T08:08:22.590Z,863.00
2024-01-24T08:09:22.635Z,862.00
2024-01-24T08:10:22.588Z,861.00
2024-01-24T08:11:22.618Z,865.00
2024-01-24T08:12:22.594Z,865.00
2024-01-24T08:13:22.558Z,865.00
2024-01-24T08:14:22.569Z,864.00
2024-01-24T08:15:22.612Z,867.00
2024-01-24T08:16:22.544Z,872.00
2024-01-24T08:17:22.854Z,874.00
2024-01-24T08:18:22.712Z,877.00
2024-01-24T08:19:22.575Z,877.00
2024-01-24T08:20:22.537Z,879.00
2024-01-24T08:21:22.545Z,882.00
2024-01-24T08:22:22.509Z,886.00
2024-01-24T08:23:26.672Z,889.00
2024-01-24T08:24:23.515Z,886.00
2024-01-24T08:25:22.477Z,885.00
2024-01-24T08:26:22.477Z,1076.00
2024-01-24T08:27:22.815Z,1125.00
2024-01-24T08:28:22.518Z,1067.00
2024-01-24T08:29:29.713Z,1080.00
2024-01-24T08:30:23.490Z,1071.00
2024-01-24T08:31:22.466Z,1065.00
2024-01-24T08:32:22.440Z,1059.00
2024-01-24T08:33:22.526Z,1042.00
2024-01-24T08:34:22.461Z,1020.00
2024-01-24T08:35:22.427Z,1037.00
2024-01-24T08:36:22.480Z,1046.00
2024-01-24T08:37:22.391Z,1051.00
2024-01-24T08:38:22.382Z,1073.00
2024-01-24T08:39:22.381Z,1092.00
2024-01-24T08:40:22.438Z,1104.00
2024-01-24T08:41:22.384Z,1143.00
2024-01-24T08:42:22.454Z,1141.00
2024-01-24T08:43:22.381Z,1148.00
2024-01-24T08:44:22.382Z,1156.00
2024-01-24T08:45:22.371Z,1159.00
2024-01-24T08:46:22.336Z,1191.00
2024-01-24T08:47:22.339Z,1202.00
2024-01-24T08:48:22.473Z,1198.00
2024-01-24T08:49:22.437Z,1208.00
2024-01-24T08:50:22.316Z,1210.00
2024-01-24T08:51:22.360Z,1206.00
2024-01-24T08:52:22.349Z,1207.00
2024-01-24T08:53:22.394Z,1208.00
2024-01-24T08:54:22.434Z,1212.00
2024-01-24T08:55:22.379Z,1207.00
2024-01-24T08:56:22.401Z,1210.00
2024-01-24T08:57:22.784Z,1220.00
2024-01-24T08:58:22.445Z,1221.00
2024-01-24T08:59:22.464Z,1214.00
2024-01-24T09:00:22.540Z,1216.00
2024-01-24T09:01:22.606Z,1216.00
2024-01-24T09:02:22.752Z,1217.00
2024-01-24T09:03:22.552Z,1215.00
2024-01-24T09:04:22.579Z,1246.00
2024-01-24T09:05:22.604Z,1245.00
2024-01-24T09:06:22.467Z,1249.00
2024-01-24T09:07:22.448Z,1251.00
2024-01-24T09:08:22.449Z,1258.00
2024-01-24T09:09:22.652Z,1265.00
2024-01-24T09:10:22.508Z,1263.00
2024-01-24T09:11:23.414Z,1260.00
2024-01-24T09:12:22.444Z,1258.00
2024-01-24T09:13:22.394Z,1256.00
2024-01-24T09:14:22.370Z,1260.00
2024-01-24T09:15:22.441Z,1264.00
2024-01-24T09:16:22.375Z,1271.00
2024-01-24T09:17:22.360Z,1277.00
2024-01-24T09:18:22.464Z,1295.00
2024-01-24T09:19:22.463Z,1292.00
2024-01-24T09:20:22.914Z,1295.00
2024-01-24T09:21:22.376Z,1315.00
2024-01-24T09:22:22.317Z,1328.00
2024-01-24T09:23:22.304Z,1103.00
2024-01-24T09:24:22.287Z,913.00
2024-01-24T09:25:22.323Z,811.00
2024-01-24T09:26:22.312Z,713.00
2024-01-24T09:27:22.337Z,693.00
2024-01-24T09:28:22.330Z,662.00
2024-01-24T09:29:22.332Z,634.00
2024-01-24T09:30:22.386Z,613.00
2024-01-24T09:31:22.420Z,593.00
2024-01-24T09:32:22.378Z,581.00
2024-01-24T09:33:22.539Z,566.00
2024-01-24T09:34:22.599Z,558.00
2024-01-24T09:35:23.020Z,550.00
2024-01-24T09:36:23.298Z,547.00
2024-01-24T09:37:22.766Z,565.00
2024-01-24T09:38:22.508Z,562.00
2024-01-24T09:39:22.578Z,582.00
2024-01-24T09:40:22.609Z,602.00
2024-01-24T09:41:22.568Z,620.00
2024-01-24T09:42:22.668Z,648.00
2024-01-24T09:43:22.611Z,679.00
2024-01-24T09:44:22.670Z,701.00
2024-01-24T09:45:22.721Z,723.00
2024-01-24T09:46:22.760Z,736.00
2024-01-24T09:47:23.288Z,748.00
2024-01-24T09:48:22.985Z,755.00
2024-01-24T09:49:22.937Z,764.00
2024-01-24T09:50:22.917Z,780.00
2024-01-24T09:51:22.986Z,787.00
2024-01-24T09:52:22.991Z,795.00
2024-01-24T09:53:22.981Z,799.00
2024-01-24T09:54:23.041Z,807.00
2024-01-24T09:55:23.078Z,848.00
2024-01-24T09:56:23.216Z,858.00
2024-01-24T09:57:23.285Z,928.00
2024-01-24T09:58:23.387Z,913.00
2024-01-24T09:59:23.371Z,910.00
2024-01-24T10:00:23.448Z,940.00
2024-01-24T10:01:23.588Z,969.00
2024-01-24T10:02:23.546Z,970.00
2024-01-24T10:03:23.586Z,973.00
2024-01-24T10:04:23.736Z,996.00
2024-01-24T10:05:23.672Z,1010.00
2024-01-24T10:06:23.778Z,1033.00
2024-01-24T10:07:23.846Z,1052.00
2024-01-24T10:08:23.791Z,1080.00
2024-01-24T10:09:23.860Z,1096.00
2024-01-24T10:10:23.843Z,1106.00
2024-01-24T10:11:23.889Z,1113.00
2024-01-24T10:12:23.958Z,1118.00
2024-01-24T10:13:23.909Z,1129.00
2024-01-24T10:14:23.910Z,1145.00
2024-01-24T10:15:23.967Z,1154.00
2024-01-24T10:16:23.937Z,1161.00
2024-01-24T10:17:23.952Z,1164.00
2024-01-24T10:18:24.014Z,1165.00
2024-01-24T10:19:24.038Z,1172.00
2024-01-24T10:20:23.935Z,1193.00
2024-01-24T10:21:24.093Z,1210.00
2024-01-24T10:22:24.325Z,1216.00
2024-01-24T10:23:23.946Z,1220.00
2024-01-24T10:24:24.033Z,1224.00
2024-01-24T10:25:23.987Z,1239.00
2024-01-24T10:26:24.075Z,1278.00
2024-01-24T10:27:24.410Z,1289.00
2024-01-24T10:28:24.015Z,1372.00
2024-01-24T10:29:24.038Z,1387.00
2024-01-24T10:30:24.024Z,1380.00
2024-01-24T10:31:24.003Z,1410.00
2024-01-24T10:32:24.286Z,1414.00
2024-01-24T10:33:24.291Z,1404.00
2024-01-24T10:34:24.105Z,1402.00
2024-01-24T10:35:24.126Z,1405.00
2024-01-24T10:36:27.762Z,1405.00
2024-01-24T10:37:25.380Z,1403.00
2024-01-24T10:38:23.965Z,1400.00
2024-01-24T10:39:24.009Z,1403.00
2024-01-24T10:40:23.960Z,1417.00
2024-01-24T10:41:23.952Z,1420.00
2024-01-24T10:42:24.015Z,1459.00
2024-01-24T10:43:23.978Z,1505.00
2024-01-24T10:44:23.942Z,1512.00
2024-01-24T10:45:24.210Z,1520.00
2024-01-24T10:46:23.978Z,1568.00
2024-01-24T10:47:24.018Z,1584.00
2024-01-24T10:48:24.400Z,1635.00
2024-01-24T10:49:24.089Z,1679.00
2024-01-24T10:50:23.965Z,1691.00
2024-01-24T10:51:24.008Z,1701.00
2024-01-24T10:52:23.921Z,1692.00
2024-01-24T10:53:23.977Z,1691.00
2024-01-24T10:54:23.961Z,1702.00
2024-01-24T10:55:23.934Z,1685.00
2024-01-24T10:56:23.899Z,1680.00
2024-01-24T10:57:23.913Z,1687.00
2024-01-24T10:58:23.886Z,1699.00
2024-01-24T10:59:23.863Z,1707.00
2024-01-24T11:00:24.028Z,1702.00
2024-01-24T11:01:23.990Z,1702.00
2024-01-24T11:02:23.839Z,1695.00
2024-01-24T11:03:23.931Z,1688.00
2024-01-24T11:04:23.903Z,1704.00
2024-01-24T11:05:23.896Z,1699.00
2024-01-24T11:06:23.805Z,1697.00
2024-01-24T11:07:23.772Z,1763.00
2024-01-24T11:08:35.908Z,1775.00
2024-01-24T11:09:24.892Z,1551.00
2024-01-24T11:10:23.876Z,1406.00
2024-01-24T11:11:24.004Z,1214.00
2024-01-24T11:12:24.101Z,1109.00
2024-01-24T11:13:24.053Z,1091.00
2024-01-24T11:14:24.048Z,1039.00
2024-01-24T11:15:24.168Z,1038.00
2024-01-24T11:16:24.077Z,947.00
2024-01-24T11:17:24.106Z,904.00
2024-01-24T11:18:24.352Z,897.00
2024-01-24T11:19:24.540Z,884.00
2024-01-24T11:20:24.217Z,865.00
2024-01-24T11:21:24.302Z,929.00
2024-01-24T11:22:29.665Z,939.00
2024-01-24T11:23:25.793Z,929.00
2024-01-24T11:24:24.325Z,917.00
2024-01-24T11:25:24.324Z,1005.00
2024-01-24T11:26:24.328Z,1022.00
2024-01-24T11:27:24.353Z,1049.00
2024-01-24T11:28:24.787Z,1064.00
2024-01-24T11:29:24.323Z,1061.00
2024-01-24T11:30:24.393Z,1057.00
2024-01-24T11:31:24.365Z,808.00
2024-01-24T11:32:24.354Z,764.00
2024-01-24T11:33:24.456Z,769.00
2024-01-24T11:34:24.422Z,783.00
2024-01-24T11:35:24.339Z,868.00
2024-01-24T11:36:24.417Z,929.00
2024-01-24T11:37:24.337Z,943.00
2024-01-24T11:38:26.798Z,949.00
2024-01-24T11:39:24.426Z,952.00
2024-01-24T11:40:24.342Z,972.00
2024-01-24T11:41:24.345Z,995.00
2024-01-24T11:42:24.370Z,1005.00
2024-01-24T11:43:24.327Z,1013.00
2024-01-24T11:44:24.309Z,1019.00
2024-01-24T11:45:24.337Z,1030.00
2024-01-24T11:46:24.375Z,1045.00
2024-01-24T11:47:24.395Z,1057.00
2024-01-24T11:48:24.423Z,1079.00
2024-01-24T11:49:24.364Z,1091.00
2024-01-24T11:50:24.296Z,1092.00
2024-01-24T11:51:24.297Z,1093.00
2024-01-24T11:52:24.286Z,1096.00
2024-01-24T11:53:24.272Z,1110.00
2024-01-24T11:54:24.358Z,1123.00
2024-01-24T11:55:24.280Z,1131.00
2024-01-24T11:56:26.155Z,1138.00
2024-01-24T11:57:24.302Z,1105.00
2024-01-24T11:58:24.244Z,1045.00
2024-01-24T11:59:24.224Z,997.00
2024-01-24T12:00:24.260Z,1082.00
2024-01-24T12:01:24.232Z,1118.00
2024-01-24T12:02:24.242Z,1054.00
2024-01-24T12:03:24.224Z,1079.00
2024-01-24T12:04:24.345Z,1088.00
2024-01-24T12:05:24.193Z,1093.00
2024-01-24T12:06:24.275Z,1086.00
2024-01-24T12:07:24.237Z,792.00
2024-01-24T12:08:24.218Z,766.00
2024-01-24T12:09:24.277Z,759.00
2024-01-24T12:10:24.239Z,790.00
2024-01-24T12:11:24.248Z,892.00
2024-01-24T12:12:25.342Z,938.00
2024-01-24T12:13:24.400Z,919.00
2024-01-24T12:14:24.295Z,938.00
2024-01-24T12:15:24.366Z,905.00
2024-01-24T12:16:24.291Z,902.00
2024-01-24T12:17:24.309Z,913.00
2024-01-24T12:18:24.461Z,911.00
2024-01-24T12:19:24.487Z,905.00
2024-01-24T12:20:24.562Z,856.00
2024-01-24T12:21:25.622Z,866.00
2024-01-24T12:22:24.376Z,857.00
2024-01-24T12:23:24.340Z,831.00